createdAt,value
2023-02-02T00:04:37.117Z,2.71
2023-02-02T00:09:40.227Z,2.71
2023-02-02T00:14:43.331Z,2.72
2023-02-02T00:19:47.056Z,2.71
2023-02-02T00:24:50.442Z,2.70
2023-02-02T00:29:54.081Z,2.68
2023-02-02T00:34:57.088Z,2.68
2023-02-02T00:40:00.194Z,2.67
2023-02-02T00:45:16.216Z,2.66
2023-02-02T00:50:21.249Z,2.64
2023-02-02T00:55:24.707Z,2.63
2023-02-02T01:00:28.895Z,2.61
2023-02-02T01:05:33.236Z,2.57
2023-02-02T01:10:36.845Z,2.48
2023-02-02T01:15:40.465Z,2.37
2023-02-02T01:20:43.772Z,2.25
2023-02-02T01:25:54.166Z,2.10
2023-02-02T01:30:57.889Z,1.95
2023-02-02T01:36:04.970Z,1.82
2023-02-02T01:41:12.487Z,1.72
2023-02-02T01:46:18.427Z,1.65
2023-02-02T01:51:25.568Z,1.61
2023-02-02T01:56:41.865Z,1.58
2023-02-02T02:01:48.048Z,1.58
2023-02-02T02:06:53.827Z,1.58
2023-02-02T02:11:57.327Z,1.61
2023-02-02T02:17:06.367Z,1.63
2023-02-02T02:22:35.995Z,1.66
2023-02-02T02:28:15.451Z,1.68
2023-02-02T02:33:46.521Z,1.71
2023-02-02T02:38:52.798Z,1.73
2023-02-02T02:44:07.902Z,1.75
2023-02-02T02:49:13.161Z,1.79
2023-02-02T02:54:21.358Z,1.84
2023-02-02T02:59:36.039Z,1.90
2023-02-02T03:04:55.742Z,1.96
2023-02-02T03:10:01.437Z,2.03
2023-02-02T03:15:06.629Z,2.08
2023-02-02T03:20:11.344Z,2.14
2023-02-02T03:25:16.368Z,2.22
2023-02-02T03:30:21.123Z,2.29
2023-02-02T03:35:26.284Z,2.37
2023-02-02T03:40:30.269Z,2.45
2023-02-02T03:45:35.740Z,2.52
2023-02-02T03:50:39.039Z,2.57
2023-02-02T03:55:42.042Z,2.61
2023-02-02T04:00:45.252Z,2.64
2023-02-02T04:05:51.454Z,2.67
2023-02-02T04:10:55.047Z,2.69
2023-02-02T04:16:02.374Z,2.71
2023-02-02T04:21:06.888Z,2.73
2023-02-02T04:26:09.994Z,2.75
2023-02-02T04:31:13.389Z,2.75
2023-02-02T04:36:16.523Z,2.76
2023-02-02T04:41:20.333Z,2.77
2023-02-02T04:46:23.441Z,2.77
2023-02-02T04:51:26.442Z,2.77
2023-02-02T04:56:29.451Z,2.76
2023-02-02T05:01:32.551Z,2.75
2023-02-02T05:06:35.497Z,2.74
2023-02-02T05:11:44.609Z,2.71
2023-02-02T05:16:47.716Z,2.67
2023-02-02T05:21:51.494Z,2.63
2023-02-02T05:26:58.900Z,2.60
2023-02-02T05:32:02.641Z,2.59
2023-02-02T05:37:05.865Z,2.59
2023-02-02T05:42:09.072Z,2.59
2023-02-02T05:47:12.274Z,2.58
2023-02-02T05:52:18.347Z,2.58
2023-02-02T05:57:21.470Z,2.53
2023-02-02T06:02:24.665Z,2.46
2023-02-02T06:07:27.772Z,2.39
2023-02-02T06:12:30.876Z,2.35
2023-02-02T06:17:34.191Z,2.31
2023-02-02T06:22:38.212Z,2.32
2023-02-02T06:27:41.522Z,2.36
2023-02-02T06:32:44.733Z,2.42
2023-02-02T06:37:47.730Z,2.48
2023-02-02T06:42:57.296Z,2.54
2023-02-02T06:48:03.890Z,2.58
2023-02-02T06:53:07.194Z,2.62
2023-02-02T06:58:10.085Z,2.68
2023-02-02T07:03:13.194Z,2.73
2023-02-02T07:08:16.820Z,2.77
2023-02-02T07:13:19.814Z,2.83
2023-02-02T07:18:23.328Z,2.90
2023-02-02T07:23:27.868Z,2.99
2023-02-02T07:28:31.074Z,3.06
2023-02-02T07:33:39.000Z,3.09
2023-02-02T07:38:43.233Z,3.12
2023-02-02T07:43:49.914Z,3.18
2023-02-02T07:48:57.325Z,3.32
2023-02-02T07:54:00.323Z,3.49
2023-02-02T07:59:04.150Z,3.55
2023-02-02T08:04:07.865Z,3.56
2023-02-02T08:09:10.973Z,3.53
2023-02-02T08:14:14.496Z,3.52
2023-02-02T08:19:17.492Z,3.65
2023-02-02T08:24:20.525Z,3.87
2023-02-02T08:29:23.701Z,4.09
2023-02-02T08:34:27.111Z,4.22
2023-02-02T08:39:30.125Z,4.21
2023-02-02T08:45:00.277Z,4.15
2023-02-02T08:49:56.395Z,4.05
2023-02-02T08:54:59.823Z,3.93
2023-02-02T09:00:09.687Z,3.85
2023-02-02T09:05:16.263Z,3.82
2023-02-02T09:10:20.195Z,3.76
2023-02-02T09:15:26.039Z,3.69
2023-02-02T09:20:29.363Z,3.70
2023-02-02T09:25:32.781Z,3.80
2023-02-02T09:30:35.992Z,4.00
2023-02-02T09:35:39.095Z,4.19
2023-02-02T09:40:42.405Z,4.22
2023-02-02T09:45:58.845Z,4.11
2023-02-02T09:51:19.027Z,4.06
2023-02-02T09:56:34.983Z,4.19
2023-02-02T10:01:43.094Z,4.62
2023-02-02T10:06:56.908Z,5.08
2023-02-02T10:12:18.465Z,5.22
2023-02-02T10:17:21.756Z,5.21
2023-02-02T10:22:30.468Z,5.52
2023-02-02T10:27:39.509Z,6.11
2023-02-02T10:33:03.637Z,6.33
2023-02-02T10:38:20.276Z,6.35
2023-02-02T10:43:54.901Z,6.09
2023-02-02T10:49:12.265Z,6.05
2023-02-02T10:54:57.243Z,6.24
2023-02-02T11:00:28.625Z,6.26
2023-02-02T11:05:50.948Z,6.22
2023-02-02T11:10:56.313Z,6.39
2023-02-02T11:16:15.190Z,6.59
2023-02-02T11:21:24.688Z,6.59
2023-02-02T11:26:42.364Z,6.42
2023-02-02T11:31:45.695Z,6.23
2023-02-02T11:37:11.024Z,6.00
2023-02-02T11:42:16.308Z,5.65
2023-02-02T11:47:28.891Z,5.27
2023-02-02T11:52:34.018Z,5.05
2023-02-02T11:57:37.583Z,5.02
2023-02-02T12:02:48.046Z,5.02
2023-02-02T12:07:51.261Z,5.08
2023-02-02T12:13:06.069Z,5.04
2023-02-02T12:18:18.579Z,4.98
2023-02-02T12:23:31.917Z,4.86
2023-02-02T12:28:49.561Z,4.78
2023-02-02T12:34:11.898Z,4.81
2023-02-02T12:39:24.035Z,4.91
2023-02-02T12:44:35.678Z,4.91
2023-02-02T12:49:59.939Z,4.78
2023-02-02T12:55:48.730Z,4.74
2023-02-02T13:01:14.821Z,4.74
2023-02-02T13:06:27.803Z,4.64
2023-02-02T13:11:55.172Z,4.60
2023-02-02T13:17:07.324Z,4.57
2023-02-02T13:22:18.843Z,4.39
2023-02-02T13:27:23.764Z,4.23
2023-02-02T13:32:34.447Z,4.26
2023-02-02T13:38:18.181Z,4.52
2023-02-02T13:43:55.591Z,4.69
2023-02-02T13:49:18.161Z,4.74
2023-02-02T13:54:58.939Z,4.69
2023-02-02T14:00:46.392Z,4.79
2023-02-02T14:06:10.182Z,4.79
2023-02-02T14:11:21.680Z,4.41
2023-02-02T14:16:30.827Z,3.96
2023-02-02T14:21:34.454Z,3.53
2023-02-02T14:26:47.556Z,3.21
2023-02-02T14:31:55.558Z,2.98
2023-02-02T14:37:24.324Z,2.80
2023-02-02T14:43:02.129Z,2.69
2023-02-02T14:48:07.695Z,2.65
2023-02-02T14:53:23.193Z,2.58
2023-02-02T14:58:46.469Z,2.48
2023-02-02T15:03:57.769Z,2.38
2023-02-02T15:09:20.540Z,2.34
2023-02-02T15:14:29.371Z,2.32
2023-02-02T15:19:43.863Z,2.30
2023-02-02T15:24:50.844Z,2.28
2023-02-02T15:30:20.636Z,2.27
2023-02-02T15:35:32.226Z,2.26
2023-02-02T15:40:38.624Z,2.20
2023-02-02T15:45:53.637Z,2.12
2023-02-02T15:51:00.689Z,2.05
2023-02-02T15:56:29.897Z,1.95
2023-02-02T16:01:45.108Z,1.84
2023-02-02T16:06:49.788Z,1.76
2023-02-02T16:11:53.806Z,1.71
2023-02-02T16:17:19.237Z,1.68
2023-02-02T16:22:25.771Z,1.67
2023-02-02T16:27:30.855Z,1.65
2023-02-02T16:32:39.613Z,1.61
2023-02-02T16:37:45.532Z,1.59
2023-02-02T16:43:24.742Z,1.58
2023-02-02T16:48:39.310Z,1.58
2023-02-02T16:53:48.725Z,1.59
2023-02-02T16:58:58.404Z,1.58
2023-02-02T17:04:02.297Z,1.53
2023-02-02T17:09:33.225Z,1.47
2023-02-02T17:14:38.254Z,1.43
2023-02-02T17:19:43.970Z,1.38
2023-02-02T17:24:49.947Z,1.32
2023-02-02T17:29:54.339Z,1.23
2023-02-02T17:34:57.762Z,1.14
2023-02-02T17:40:01.673Z,1.03
2023-02-02T17:45:34.062Z,0.93
2023-02-02T17:50:38.219Z,0.83
2023-02-02T17:55:43.804Z,0.76
2023-02-02T18:00:50.422Z,0.71
2023-02-02T18:05:56.732Z,0.68
2023-02-02T18:11:00.249Z,0.66
2023-02-02T18:16:07.358Z,0.61
2023-02-02T18:21:15.905Z,0.57
2023-02-02T18:26:22.975Z,0.56
2023-02-02T18:31:27.584Z,0.59
2023-02-02T18:36:30.937Z,0.67
2023-02-02T18:41:34.334Z,0.77
2023-02-02T18:46:39.010Z,0.86
2023-02-02T18:51:43.002Z,0.92
2023-02-02T18:56:46.567Z,0.96
2023-02-02T19:01:49.777Z,0.97
2023-02-02T19:07:12.087Z,0.98
2023-02-02T19:12:16.426Z,0.97
2023-02-02T19:17:25.119Z,0.92
2023-02-02T19:22:31.843Z,0.87
2023-02-02T19:27:36.495Z,0.86
2023-02-02T19:32:39.896Z,0.86
2023-02-02T19:37:43.537Z,0.85
2023-02-02T19:42:56.606Z,0.85
2023-02-02T19:48:03.137Z,0.83
2023-02-02T19:53:23.556Z,0.81
2023-02-02T19:58:34.550Z,0.79
2023-02-02T20:03:47.208Z,0.74
2023-02-02T20:08:50.688Z,0.69
2023-02-02T20:13:53.691Z,0.71
2023-02-02T20:18:58.130Z,0.75
2023-02-02T20:24:01.641Z,0.78
2023-02-02T20:29:20.066Z,0.82
2023-02-02T20:34:36.229Z,0.86
2023-02-02T20:39:50.279Z,0.87
2023-02-02T20:44:54.409Z,0.83
2023-02-02T20:50:01.406Z,0.77
2023-02-02T20:55:10.152Z,0.71
2023-02-02T21:00:20.526Z,0.64
2023-02-02T21:05:24.762Z,0.53
2023-02-02T21:10:28.790Z,0.44
2023-02-02T21:15:32.400Z,0.38
2023-02-02T21:20:36.125Z,0.36
2023-02-02T21:25:39.435Z,0.37
2023-02-02T21:30:42.806Z,0.36
2023-02-02T21:35:46.457Z,0.27
2023-02-02T21:40:52.141Z,0.12
2023-02-02T21:45:58.035Z,-0.03
2023-02-02T21:51:37.756Z,-0.11
2023-02-02T21:56:42.100Z,-0.17
2023-02-02T22:01:47.398Z,-0.26
2023-02-02T22:06:57.214Z,-0.36
2023-02-02T22:12:02.471Z,-0.50
2023-02-02T22:17:27.383Z,-0.63
2023-02-02T22:22:35.600Z,-0.74
2023-02-02T22:27:50.647Z,-0.83
2023-02-02T22:32:54.639Z,-0.91
2023-02-02T22:37:57.935Z,-1.00
2023-02-02T22:43:04.057Z,-1.11
2023-02-02T22:48:07.238Z,-1.20
2023-02-02T22:53:11.139Z,-1.22
2023-02-02T22:58:14.150Z,-1.16
2023-02-02T23:03:17.170Z,-1.11
2023-02-02T23:08:20.561Z,-1.10
2023-02-02T23:13:23.767Z,-1.14
2023-02-02T23:18:26.877Z,-1.24
2023-02-02T23:23:29.981Z,-1.34
2023-02-02T23:28:33.498Z,-1.45
2023-02-02T23:33:36.504Z,-1.56
2023-02-02T23:38:39.501Z,-1.67
2023-02-02T23:43:42.811Z,-1.82
2023-02-02T23:48:46.532Z,-1.97
2023-02-02T23:53:50.049Z,-2.14
2023-02-02T23:58:53.049Z,-2.31
